sensor_id;sensor_type;location;lat;lon;timestamp;pressure;altitude;pressure_sealevel;temperature;humidity
12468;BME280;57850;52.922;6.256;2023-03-23T00:00:00;99957.91;;;14.65;nan
12468;BME280;57850;52.922;6.256;2023-03-23T00:02:32;99960.41;;;14.66;nan
12468;BME280;57850;52.922;6.256;2023-03-23T00:05:02;99947.00;;;14.83;nan
12468;BME280;57850;52.922;6.256;2023-03-23T00:07:29;99986.78;;;14.65;nan
12468;BME280;57850;52.922;6.256;2023-03-23T00:09:55;99968.69;;;14.47;nan
12468;BME280;57850;52.922;6.256;2023-03-23T00:12:23;99942.91;;;14.79;nan
12468;BME280;57850;52.922;6.256;2023-03-23T00:14:54;99946.34;;;14.67;nan
12468;BME280;57850;52.922;6.256;2023-03-23T00:17:20;99957.38;;;14.60;nan
12468;BME280;57850;52.922;6.256;2023-03-23T00:19:48;99948.66;;;14.59;nan
12468;BME280;57850;52.922;6.256;2023-03-23T00:22:17;99955.53;;;14.87;nan
12468;BME280;57850;52.922;6.256;2023-03-23T00:24:46;99970.72;;;14.69;nan
12468;BME280;57850;52.922;6.256;2023-03-23T00:27:15;100004.25;;;14.39;nan
12468;BME280;57850;52.922;6.256;2023-03-23T00:29:43;99947.19;;;14.68;nan
12468;BME280;57850;52.922;6.256;2023-03-23T00:32:12;99929.25;;;14.87;nan
12468;BME280;57850;52.922;6.256;2023-03-23T00:34:40;99961.47;;;14.64;nan
12468;BME280;57850;52.922;6.256;2023-03-23T00:37:09;99936.06;;;14.64;nan
12468;BME280;57850;52.922;6.256;2023-03-23T00:39:38;99940.47;;;14.64;nan
12468;BME280;57850;52.922;6.256;2023-03-23T00:42:12;99957.31;;;14.86;nan
12468;BME280;57850;52.922;6.256;2023-03-23T00:44:39;99964.53;;;14.83;nan
12468;BME280;57850;52.922;6.256;2023-03-23T00:47:06;99981.34;;;14.68;nan
12468;BME280;57850;52.922;6.256;2023-03-23T00:49:34;99985.69;;;14.81;nan
12468;BME280;57850;52.922;6.256;2023-03-23T00:52:02;100001.69;;;14.64;nan
12468;BME280;57850;52.922;6.256;2023-03-23T00:54:29;99982.31;;;14.92;nan
12468;BME280;57850;52.922;6.256;2023-03-23T00:56:57;99992.59;;;14.95;nan
12468;BME280;57850;52.922;6.256;2023-03-23T00:59:24;99987.34;;;14.95;nan
12468;BME280;57850;52.922;6.256;2023-03-23T01:01:51;100011.28;;;14.65;nan
12468;BME280;57850;52.922;6.256;2023-03-23T01:04:17;100010.09;;;14.69;nan
12468;BME280;57850;52.922;6.256;2023-03-23T01:06:48;99989.47;;;14.90;nan
12468;BME280;57850;52.922;6.256;2023-03-23T01:09:16;100002.78;;;14.74;nan
12468;BME280;57850;52.922;6.256;2023-03-23T01:11:44;100017.03;;;14.70;nan
12468;BME280;57850;52.922;6.256;2023-03-23T01:14:14;100001.84;;;14.88;nan
12468;BME280;57850;52.922;6.256;2023-03-23T01:16:41;100008.66;;;14.78;nan
12468;BME280;57850;52.922;6.256;2023-03-23T01:19:08;100028.44;;;14.57;nan
12468;BME280;57850;52.922;6.256;2023-03-23T01:21:35;100012.22;;;14.77;nan
12468;BME280;57850;52.922;6.256;2023-03-23T01:24:03;100008.75;;;14.76;nan
12468;BME280;57850;52.922;6.256;2023-03-23T01:26:29;100009.91;;;14.72;nan
12468;BME280;57850;52.922;6.256;2023-03-23T01:28:56;100013.16;;;14.76;nan
12468;BME280;57850;52.922;6.256;2023-03-23T01:31:24;100019.78;;;14.69;nan
12468;BME280;57850;52.922;6.256;2023-03-23T01:33:51;100015.69;;;14.77;nan
12468;BME280;57850;52.922;6.256;2023-03-23T01:36:21;100027.69;;;14.81;nan
12468;BME280;57850;52.922;6.256;2023-03-23T01:38:49;100018.22;;;14.79;nan
12468;BME280;57850;52.922;6.256;2023-03-23T01:41:16;100020.84;;;14.79;nan
12468;BME280;57850;52.922;6.256;2023-03-23T01:43:57;100045.56;;;14.50;nan
12468;BME280;57850;52.922;6.256;2023-03-23T01:46:29;100040.59;;;14.72;nan
12468;BME280;57850;52.922;6.256;2023-03-23T01:48:56;100047.94;;;14.79;nan
12468;BME280;57850;52.922;6.256;2023-03-23T01:51:24;100048.50;;;14.84;nan
12468;BME280;57850;52.922;6.256;2023-03-23T01:53:55;100049.59;;;14.68;nan
12468;BME280;57850;52.922;6.256;2023-03-23T01:56:27;100029.50;;;14.54;nan
12468;BME280;57850;52.922;6.256;2023-03-23T01:58:55;100040.34;;;14.62;nan
12468;BME280;57850;52.922;6.256;2023-03-23T02:01:23;100020.81;;;14.66;nan
12468;BME280;57850;52.922;6.256;2023-03-23T02:03:54;100016.97;;;14.84;nan
12468;BME280;57850;52.922;6.256;2023-03-23T02:06:23;100019.47;;;14.73;nan
12468;BME280;57850;52.922;6.256;2023-03-23T02:08:51;100029.78;;;14.76;nan
12468;BME280;57850;52.922;6.256;2023-03-23T02:11:20;100033.34;;;14.75;nan
12468;BME280;57850;52.922;6.256;2023-03-23T02:13:48;100032.75;;;14.84;nan
12468;BME280;57850;52.922;6.256;2023-03-23T02:16:21;100027.88;;;14.66;nan
12468;BME280;57850;52.922;6.256;2023-03-23T02:18:58;100051.91;;;14.72;nan
12468;BME280;57850;52.922;6.256;2023-03-23T02:30:29;100071.25;;;14.44;nan
12468;BME280;57850;52.922;6.256;2023-03-23T02:33:31;100060.16;;;14.80;nan
12468;BME280;57850;52.922;6.256;2023-03-23T02:36:04;100055.59;;;14.70;nan
12468;BME280;57850;52.922;6.256;2023-03-23T02:38:35;100054.44;;;14.74;nan
12468;BME280;57850;52.922;6.256;2023-03-23T02:41:03;100046.91;;;14.82;nan
12468;BME280;57850;52.922;6.256;2023-03-23T02:43:33;100048.06;;;14.78;nan
12468;BME280;57850;52.922;6.256;2023-03-23T02:46:04;100069.69;;;14.69;nan
12468;BME280;57850;52.922;6.256;2023-03-23T02:48:35;100056.38;;;14.84;nan
12468;BME280;57850;52.922;6.256;2023-03-23T02:51:03;100072.19;;;14.70;nan
12468;BME280;57850;52.922;6.256;2023-03-23T02:53:33;100067.09;;;14.81;nan
12468;BME280;57850;52.922;6.256;2023-03-23T02:56:02;100068.09;;;14.79;nan
12468;BME280;57850;52.922;6.256;2023-03-23T02:58:30;100062.13;;;14.77;nan
12468;BME280;57850;52.922;6.256;2023-03-23T03:00:57;100066.97;;;14.83;nan
12468;BME280;57850;52.922;6.256;2023-03-23T03:03:26;100074.22;;;14.79;nan
12468;BME280;57850;52.922;6.256;2023-03-23T03:06:02;100082.72;;;14.83;nan
12468;BME280;57850;52.922;6.256;2023-03-23T03:08:36;100061.47;;;15.00;nan
12468;BME280;57850;52.922;6.256;2023-03-23T03:11:07;100072.91;;;14.99;nan
12468;BME280;57850;52.922;6.256;2023-03-23T03:13:39;100090.16;;;14.76;nan
12468;BME280;57850;52.922;6.256;2023-03-23T03:16:18;100065.47;;;14.79;nan
12468;BME280;57850;52.922;6.256;2023-03-23T03:18:51;100082.25;;;14.64;nan
12468;BME280;57850;52.922;6.256;2023-03-23T03:21:23;100094.09;;;14.83;nan
12468;BME280;57850;52.922;6.256;2023-03-23T03:23:54;100075.22;;;14.64;nan
12468;BME280;57850;52.922;6.256;2023-03-23T03:26:25;100047.47;;;14.60;nan
12468;BME280;57850;52.922;6.256;2023-03-23T03:28:53;100037.03;;;14.46;nan
12468;BME280;57850;52.922;6.256;2023-03-23T03:31:22;100032.28;;;14.38;nan
12468;BME280;57850;52.922;6.256;2023-03-23T03:33:50;100018.22;;;14.25;nan
12468;BME280;57850;52.922;6.256;2023-03-23T03:36:19;99986.59;;;14.14;nan
12468;BME280;57850;52.922;6.256;2023-03-23T03:38:50;99981.56;;;14.11;nan
12468;BME280;57850;52.922;6.256;2023-03-23T03:41:18;99964.88;;;14.12;nan
12468;BME280;57850;52.922;6.256;2023-03-23T03:43:45;99941.72;;;14.19;nan
12468;BME280;57850;52.922;6.256;2023-03-23T03:46:11;99930.75;;;14.00;nan
12468;BME280;57850;52.922;6.256;2023-03-23T03:48:38;99916.50;;;14.16;nan
12468;BME280;57850;52.922;6.256;2023-03-23T03:51:04;99907.91;;;14.14;nan
12468;BME280;57850;52.922;6.256;2023-03-23T03:53:31;99911.97;;;14.06;nan
12468;BME280;57850;52.922;6.256;2023-03-23T03:55:59;99904.03;;;14.20;nan
12468;BME280;57850;52.922;6.256;2023-03-23T03:58:26;99913.91;;;14.29;nan
12468;BME280;57850;52.922;6.256;2023-03-23T04:00:57;99931.34;;;14.30;nan
12468;BME280;57850;52.922;6.256;2023-03-23T04:03:24;99957.53;;;14.17;nan
12468;BME280;57850;52.922;6.256;2023-03-23T04:05:52;99948.13;;;14.27;nan
12468;BME280;57850;52.922;6.256;2023-03-23T04:08:20;99941.13;;;14.28;nan
12468;BME280;57850;52.922;6.256;2023-03-23T04:10:47;99953.34;;;14.41;nan
12468;BME280;57850;52.922;6.256;2023-03-23T04:13:15;99941.69;;;14.45;nan
12468;BME280;57850;52.922;6.256;2023-03-23T04:15:43;99969.22;;;14.26;nan
12468;BME280;57850;52.922;6.256;2023-03-23T04:18:10;99924.16;;;14.19;nan
12468;BME280;57850;52.922;6.256;2023-03-23T04:20:36;99908.78;;;14.27;nan
12468;BME280;57850;52.922;6.256;2023-03-23T04:23:03;99911.44;;;14.13;nan
12468;BME280;57850;52.922;6.256;2023-03-23T04:25:30;99909.88;;;14.11;nan
12468;BME280;57850;52.922;6.256;2023-03-23T04:27:58;99936.00;;;13.85;nan
12468;BME280;57850;52.922;6.256;2023-03-23T04:30:28;99916.94;;;13.83;nan
12468;BME280;57850;52.922;6.256;2023-03-23T04:32:57;99908.69;;;13.75;nan
12468;BME280;57850;52.922;6.256;2023-03-23T04:35:26;99872.66;;;14.18;nan
12468;BME280;57850;52.922;6.256;2023-03-23T04:37:55;99896.03;;;13.82;nan
12468;BME280;57850;52.922;6.256;2023-03-23T04:40:23;99888.81;;;13.85;nan
12468;BME280;57850;52.922;6.256;2023-03-23T04:42:50;99881.00;;;13.71;nan
12468;BME280;57850;52.922;6.256;2023-03-23T04:45:19;99889.72;;;13.72;nan
12468;BME280;57850;52.922;6.256;2023-03-23T04:47:49;99880.75;;;13.88;nan
12468;BME280;57850;52.922;6.256;2023-03-23T04:50:19;99894.34;;;13.54;nan
12468;BME280;57850;52.922;6.256;2023-03-23T04:52:46;99901.81;;;13.60;nan
12468;BME280;57850;52.922;6.256;2023-03-23T04:55:13;99916.34;;;13.78;nan
12468;BME280;57850;52.922;6.256;2023-03-23T04:57:40;99947.59;;;13.55;nan
12468;BME280;57850;52.922;6.256;2023-03-23T05:00:07;99963.72;;;13.49;nan
12468;BME280;57850;52.922;6.256;2023-03-23T05:02:37;99972.88;;;13.56;nan
12468;BME280;57850;52.922;6.256;2023-03-23T05:05:06;99991.22;;;13.56;nan
12468;BME280;57850;52.922;6.256;2023-03-23T05:07:33;100010.50;;;13.26;nan
12468;BME280;57850;52.922;6.256;2023-03-23T05:10:00;100005.00;;;13.45;nan
12468;BME280;57850;52.922;6.256;2023-03-23T05:12:26;100023.78;;;13.37;nan
12468;BME280;57850;52.922;6.256;2023-03-23T05:14:53;100002.84;;;13.52;nan
12468;BME280;57850;52.922;6.256;2023-03-23T05:17:20;100018.00;;;13.47;nan
12468;BME280;57850;52.922;6.256;2023-03-23T05:19:49;100007.91;;;13.40;nan
12468;BME280;57850;52.922;6.256;2023-03-23T05:22:17;99997.03;;;13.47;nan
12468;BME280;57850;52.922;6.256;2023-03-23T05:24:46;100002.63;;;13.83;nan
12468;BME280;57850;52.922;6.256;2023-03-23T05:27:13;100022.88;;;13.53;nan
12468;BME280;57850;52.922;6.256;2023-03-23T05:29:40;100024.53;;;13.54;nan
12468;BME280;57850;52.922;6.256;2023-03-23T05:32:07;100025.75;;;13.76;nan
12468;BME280;57850;52.922;6.256;2023-03-23T05:34:34;100032.69;;;13.63;nan
12468;BME280;57850;52.922;6.256;2023-03-23T05:37:02;100043.72;;;13.54;nan
12468;BME280;57850;52.922;6.256;2023-03-23T05:39:30;100063.97;;;13.52;nan
12468;BME280;57850;52.922;6.256;2023-03-23T05:41:57;100047.38;;;13.80;nan
12468;BME280;57850;52.922;6.256;2023-03-23T05:44:24;100073.97;;;13.74;nan
12468;BME280;57850;52.922;6.256;2023-03-23T05:46:51;100074.34;;;13.68;nan
12468;BME280;57850;52.922;6.256;2023-03-23T05:49:18;100097.09;;;13.67;nan
12468;BME280;57850;52.922;6.256;2023-03-23T05:51:45;100088.56;;;13.92;nan
12468;BME280;57850;52.922;6.256;2023-03-23T05:54:12;100104.78;;;13.56;nan
12468;BME280;57850;52.922;6.256;2023-03-23T05:56:40;100109.19;;;13.56;nan
12468;BME280;57850;52.922;6.256;2023-03-23T05:59:07;100115.72;;;13.91;nan
12468;BME280;57850;52.922;6.256;2023-03-23T06:01:35;100109.19;;;13.70;nan
12468;BME280;57850;52.922;6.256;2023-03-23T06:04:02;100106.00;;;13.79;nan
12468;BME280;57850;52.922;6.256;2023-03-23T06:06:29;100103.94;;;13.70;nan
12468;BME280;57850;52.922;6.256;2023-03-23T06:08:57;100087.25;;;13.85;nan
12468;BME280;57850;52.922;6.256;2023-03-23T06:11:24;100104.03;;;13.68;nan
12468;BME280;57850;52.922;6.256;2023-03-23T06:13:52;100105.25;;;13.77;nan
12468;BME280;57850;52.922;6.256;2023-03-23T06:16:19;100112.19;;;13.78;nan
12468;BME280;57850;52.922;6.256;2023-03-23T06:18:46;100120.63;;;13.69;nan
12468;BME280;57850;52.922;6.256;2023-03-23T06:21:13;100107.88;;;13.77;nan
12468;BME280;57850;52.922;6.256;2023-03-23T06:23:40;100124.28;;;13.80;nan
12468;BME280;57850;52.922;6.256;2023-03-23T06:26:07;100126.41;;;13.74;nan
12468;BME280;57850;52.922;6.256;2023-03-23T06:28:35;100115.28;;;13.70;nan
12468;BME280;57850;52.922;6.256;2023-03-23T06:31:04;100133.88;;;13.66;nan
12468;BME280;57850;52.922;6.256;2023-03-23T06:33:32;100139.16;;;13.80;nan
12468;BME280;57850;52.922;6.256;2023-03-23T06:35:59;100159.75;;;13.72;nan
12468;BME280;57850;52.922;6.256;2023-03-23T06:38:26;100175.38;;;13.73;nan
12468;BME280;57850;52.922;6.256;2023-03-23T06:40:53;100167.34;;;14.05;nan
12468;BME280;57850;52.922;6.256;2023-03-23T06:43:21;100186.91;;;13.85;nan
12468;BME280;57850;52.922;6.256;2023-03-23T06:45:47;100177.09;;;14.03;nan
12468;BME280;57850;52.922;6.256;2023-03-23T06:48:16;100193.78;;;13.87;nan
12468;BME280;57850;52.922;6.256;2023-03-23T06:50:42;100200.69;;;13.74;nan
12468;BME280;57850;52.922;6.256;2023-03-23T06:53:10;100200.44;;;13.93;nan
12468;BME280;57850;52.922;6.256;2023-03-23T06:55:36;100200.16;;;14.12;nan
12468;BME280;57850;52.922;6.256;2023-03-23T06:58:03;100219.63;;;13.93;nan
12468;BME280;57850;52.922;6.256;2023-03-23T07:00:31;100213.81;;;14.03;nan
12468;BME280;57850;52.922;6.256;2023-03-23T07:02:57;100213.25;;;13.83;nan
12468;BME280;57850;52.922;6.256;2023-03-23T07:05:25;100226.25;;;13.85;nan
12468;BME280;57850;52.922;6.256;2023-03-23T07:07:52;100226.84;;;14.04;nan
12468;BME280;57850;52.922;6.256;2023-03-23T07:10:19;100242.94;;;13.84;nan
12468;BME280;57850;52.922;6.256;2023-03-23T07:12:46;100240.13;;;14.01;nan
12468;BME280;57850;52.922;6.256;2023-03-23T07:15:14;100248.66;;;13.90;nan
12468;BME280;57850;52.922;6.256;2023-03-23T07:17:40;100262.34;;;13.95;nan
12468;BME280;57850;52.922;6.256;2023-03-23T07:20:08;100256.66;;;14.03;nan
12468;BME280;57850;52.922;6.256;2023-03-23T07:22:36;100266.47;;;14.14;nan
12468;BME280;57850;52.922;6.256;2023-03-23T07:25:04;100269.34;;;13.95;nan
12468;BME280;57850;52.922;6.256;2023-03-23T07:27:31;100257.44;;;14.33;nan
12468;BME280;57850;52.922;6.256;2023-03-23T07:29:57;100260.25;;;14.44;nan
12468;BME280;57850;52.922;6.256;2023-03-23T07:32:24;100264.38;;;14.34;nan
12468;BME280;57850;52.922;6.256;2023-03-23T07:34:50;100293.56;;;14.14;nan
12468;BME280;57850;52.922;6.256;2023-03-23T07:37:17;100293.25;;;14.05;nan
12468;BME280;57850;52.922;6.256;2023-03-23T07:39:45;100289.53;;;14.09;nan
12468;BME280;57850;52.922;6.256;2023-03-23T07:42:12;100292.81;;;14.12;nan
12468;BME280;57850;52.922;6.256;2023-03-23T07:44:38;100273.94;;;14.50;nan
12468;BME280;57850;52.922;6.256;2023-03-23T07:47:05;100298.81;;;14.28;nan
12468;BME280;57850;52.922;6.256;2023-03-23T07:49:32;100288.00;;;14.34;nan
12468;BME280;57850;52.922;6.256;2023-03-23T07:51:59;100303.75;;;14.34;nan
12468;BME280;57850;52.922;6.256;2023-03-23T07:54:27;100299.06;;;14.39;nan
12468;BME280;57850;52.922;6.256;2023-03-23T07:56:55;100315.19;;;14.47;nan
12468;BME280;57850;52.922;6.256;2023-03-23T07:59:22;100321.94;;;14.37;nan
12468;BME280;57850;52.922;6.256;2023-03-23T08:01:48;100342.09;;;14.07;nan
12468;BME280;57850;52.922;6.256;2023-03-23T08:04:15;100338.34;;;14.11;nan
12468;BME280;57850;52.922;6.256;2023-03-23T08:06:41;100336.00;;;14.36;nan
12468;BME280;57850;52.922;6.256;2023-03-23T08:09:08;100318.56;;;14.64;nan
12468;BME280;57850;52.922;6.256;2023-03-23T08:11:35;100351.84;;;14.19;nan
12468;BME280;57850;52.922;6.256;2023-03-23T08:14:04;100336.38;;;14.44;nan
12468;BME280;57850;52.922;6.256;2023-03-23T08:16:31;100361.03;;;14.42;nan
12468;BME280;57850;52.922;6.256;2023-03-23T08:18:57;100345.75;;;14.48;nan
12468;BME280;57850;52.922;6.256;2023-03-23T08:21:24;100350.44;;;14.43;nan
12468;BME280;57850;52.922;6.256;2023-03-23T08:23:52;100358.69;;;14.52;nan
12468;BME280;57850;52.922;6.256;2023-03-23T08:26:18;100357.47;;;14.57;nan
12468;BME280;57850;52.922;6.256;2023-03-23T08:28:45;100348.50;;;14.75;nan
12468;BME280;57850;52.922;6.256;2023-03-23T08:31:14;100362.44;;;14.33;nan
12468;BME280;57850;52.922;6.256;2023-03-23T08:33:42;100358.88;;;14.34;nan
12468;BME280;57850;52.922;6.256;2023-03-23T08:36:09;100362.47;;;14.62;nan
12468;BME280;57850;52.922;6.256;2023-03-23T08:38:36;100370.13;;;14.51;nan
12468;BME280;57850;52.922;6.256;2023-03-23T08:41:04;100364.53;;;14.99;nan
12468;BME280;57850;52.922;6.256;2023-03-23T08:43:33;100371.28;;;14.89;nan
12468;BME280;57850;52.922;6.256;2023-03-23T08:46:00;100377.94;;;14.66;nan
12468;BME280;57850;52.922;6.256;2023-03-23T08:48:33;100377.47;;;14.74;nan
12468;BME280;57850;52.922;6.256;2023-03-23T08:51:00;100393.59;;;14.82;nan
12468;BME280;57850;52.922;6.256;2023-03-23T08:53:27;100388.16;;;15.13;nan
12468;BME280;57850;52.922;6.256;2023-03-23T08:55:55;100377.50;;;15.43;nan
12468;BME280;57850;52.922;6.256;2023-03-23T08:58:22;100393.78;;;15.49;nan
12468;BME280;57850;52.922;6.256;2023-03-23T09:00:49;100407.88;;;15.34;nan
12468;BME280;57850;52.922;6.256;2023-03-23T09:03:16;100398.34;;;15.46;nan
12468;BME280;57850;52.922;6.256;2023-03-23T09:05:44;100405.81;;;15.25;nan
12468;BME280;57850;52.922;6.256;2023-03-23T09:08:11;100445.53;;;15.07;nan
12468;BME280;57850;52.922;6.256;2023-03-23T09:10:38;100410.97;;;15.27;nan
12468;BME280;57850;52.922;6.256;2023-03-23T09:13:05;100444.34;;;14.82;nan
12468;BME280;57850;52.922;6.256;2023-03-23T09:15:32;100421.78;;;15.22;nan
12468;BME280;57850;52.922;6.256;2023-03-23T09:17:59;100411.88;;;15.54;nan
12468;BME280;57850;52.922;6.256;2023-03-23T09:20:27;100432.28;;;15.22;nan
12468;BME280;57850;52.922;6.256;2023-03-23T09:22:56;100428.22;;;15.59;nan
12468;BME280;57850;52.922;6.256;2023-03-23T09:25:26;100427.25;;;15.74;nan
12468;BME280;57850;52.922;6.256;2023-03-23T09:27:55;100437.50;;;16.18;nan
12468;BME280;57850;52.922;6.256;2023-03-23T09:30:23;100436.97;;;16.13;nan
12468;BME280;57850;52.922;6.256;2023-03-23T09:32:51;100412.97;;;17.07;nan
12468;BME280;57850;52.922;6.256;2023-03-23T09:35:18;100446.28;;;16.83;nan
12468;BME280;57850;52.922;6.256;2023-03-23T09:37:47;100443.56;;;17.10;nan
12468;BME280;57850;52.922;6.256;2023-03-23T09:40:18;100422.75;;;17.18;nan
12468;BME280;57850;52.922;6.256;2023-03-23T09:43:04;100448.06;;;17.21;nan
12468;BME280;57850;52.922;6.256;2023-03-23T09:45:37;100431.13;;;17.48;nan
12468;BME280;57850;52.922;6.256;2023-03-23T09:48:29;100485.47;;;16.63;nan
12468;BME280;57850;52.922;6.256;2023-03-23T09:51:02;100484.41;;;16.38;nan
12468;BME280;57850;52.922;6.256;2023-03-23T09:53:34;100486.03;;;16.14;nan
12468;BME280;57850;52.922;6.256;2023-03-23T09:56:09;100507.28;;;15.70;nan
12468;BME280;57850;52.922;6.256;2023-03-23T09:58:43;100483.66;;;16.24;nan
12468;BME280;57850;52.922;6.256;2023-03-23T10:01:15;100435.97;;;17.54;nan
12468;BME280;57850;52.922;6.256;2023-03-23T10:03:45;100440.75;;;17.86;nan
12468;BME280;57850;52.922;6.256;2023-03-23T10:06:14;100462.00;;;17.35;nan
12468;BME280;57850;52.922;6.256;2023-03-23T10:08:45;100458.75;;;17.06;nan
12468;BME280;57850;52.922;6.256;2023-03-23T10:11:18;100441.19;;;17.43;nan
12468;BME280;57850;52.922;6.256;2023-03-23T10:13:58;100440.00;;;17.73;nan
12468;BME280;57850;52.922;6.256;2023-03-23T10:16:28;100435.69;;;17.83;nan
12468;BME280;57850;52.922;6.256;2023-03-23T10:18:58;100447.47;;;17.79;nan
12468;BME280;57850;52.922;6.256;2023-03-23T10:21:27;100386.84;;;18.93;nan
12468;BME280;57850;52.922;6.256;2023-03-23T10:23:59;100412.53;;;18.68;nan
12468;BME280;57850;52.922;6.256;2023-03-23T10:26:38;100402.44;;;18.62;nan
12468;BME280;57850;52.922;6.256;2023-03-23T10:29:14;100403.31;;;18.96;nan
12468;BME280;57850;52.922;6.256;2023-03-23T10:31:46;100460.69;;;17.66;nan
12468;BME280;57850;52.922;6.256;2023-03-23T10:34:17;100451.66;;;17.81;nan
12468;BME280;57850;52.922;6.256;2023-03-23T10:36:55;100487.09;;;17.03;nan
12468;BME280;57850;52.922;6.256;2023-03-23T10:39:26;100499.59;;;16.62;nan
12468;BME280;57850;52.922;6.256;2023-03-23T10:41:59;100506.00;;;16.04;nan
12468;BME280;57850;52.922;6.256;2023-03-23T10:44:33;100501.38;;;16.34;nan
12468;BME280;57850;52.922;6.256;2023-03-23T10:47:01;100489.00;;;16.76;nan
12468;BME280;57850;52.922;6.256;2023-03-23T10:49:31;100464.22;;;16.91;nan
12468;BME280;57850;52.922;6.256;2023-03-23T10:52:04;100507.09;;;16.68;nan
12468;BME280;57850;52.922;6.256;2023-03-23T10:54:36;100485.47;;;16.63;nan
12468;BME280;57850;52.922;6.256;2023-03-23T10:57:21;100512.75;;;16.08;nan
12468;BME280;57850;52.922;6.256;2023-03-23T10:59:48;100492.22;;;16.79;nan
12468;BME280;57850;52.922;6.256;2023-03-23T11:02:17;100436.56;;;17.83;nan
12468;BME280;57850;52.922;6.256;2023-03-23T11:04:46;100447.06;;;17.72;nan
12468;BME280;57850;52.922;6.256;2023-03-23T11:07:26;100449.19;;;17.42;nan
12468;BME280;57850;52.922;6.256;2023-03-23T11:09:55;100351.56;;;19.59;nan
12468;BME280;57850;52.922;6.256;2023-03-23T11:12:25;100376.78;;;18.98;nan
12468;BME280;57850;52.922;6.256;2023-03-23T11:14:51;100429.91;;;18.01;nan
12468;BME280;57850;52.922;6.256;2023-03-23T11:17:24;100413.63;;;18.07;nan
12468;BME280;57850;52.922;6.256;2023-03-23T11:19:52;100363.25;;;19.45;nan
12468;BME280;57850;52.922;6.256;2023-03-23T11:22:24;100340.22;;;20.00;nan
12468;BME280;57850;52.922;6.256;2023-03-23T11:24:53;100359.59;;;19.68;nan
12468;BME280;57850;52.922;6.256;2023-03-23T11:27:21;100419.22;;;18.50;nan
12468;BME280;57850;52.922;6.256;2023-03-23T11:29:52;100405.31;;;18.70;nan
12468;BME280;57850;52.922;6.256;2023-03-23T11:32:23;100431.78;;;18.47;nan
12468;BME280;57850;52.922;6.256;2023-03-23T11:34:54;100414.88;;;19.06;nan
12468;BME280;57850;52.922;6.256;2023-03-23T11:37:28;100422.28;;;18.68;nan
12468;BME280;57850;52.922;6.256;2023-03-23T11:39:58;100383.72;;;19.43;nan
12468;BME280;57850;52.922;6.256;2023-03-23T11:42:26;100334.53;;;20.97;nan
12468;BME280;57850;52.922;6.256;2023-03-23T11:45:15;100351.47;;;20.13;nan
12468;BME280;57850;52.922;6.256;2023-03-23T11:47:48;100392.28;;;19.13;nan
12468;BME280;57850;52.922;6.256;2023-03-23T11:50:19;100470.56;;;18.11;nan
12468;BME280;57850;52.922;6.256;2023-03-23T11:52:51;100472.16;;;17.78;nan
12468;BME280;57850;52.922;6.256;2023-03-23T11:55:21;100442.59;;;17.85;nan
12468;BME280;57850;52.922;6.256;2023-03-23T11:57:49;100399.97;;;19.16;nan
12468;BME280;57850;52.922;6.256;2023-03-23T12:00:20;100379.03;;;19.47;nan
12468;BME280;57850;52.922;6.256;2023-03-23T12:02:53;100323.22;;;20.64;nan
12468;BME280;57850;52.922;6.256;2023-03-23T12:05:44;100310.38;;;20.60;nan
12468;BME280;57850;52.922;6.256;2023-03-23T12:08:25;100331.81;;;20.15;nan
12468;BME280;57850;52.922;6.256;2023-03-23T12:10:59;100359.72;;;19.99;nan
12468;BME280;57850;52.922;6.256;2023-03-23T12:13:42;100389.72;;;19.45;nan
12468;BME280;57850;52.922;6.256;2023-03-23T12:16:25;100385.72;;;19.73;nan
12468;BME280;57850;52.922;6.256;2023-03-23T12:19:02;100361.88;;;19.73;nan
12468;BME280;57850;52.922;6.256;2023-03-23T12:21:44;100384.19;;;19.37;nan
12468;BME280;57850;52.922;6.256;2023-03-23T12:24:20;100423.72;;;18.37;nan
12468;BME280;57850;52.922;6.256;2023-03-23T12:26:55;100396.59;;;19.14;nan
12468;BME280;57850;52.922;6.256;2023-03-23T12:29:44;100397.91;;;19.31;nan
12468;BME280;57850;52.922;6.256;2023-03-23T12:35:29;100345.31;;;20.44;nan
12468;BME280;57850;52.922;6.256;2023-03-23T12:38:10;100364.75;;;20.34;nan
12468;BME280;57850;52.922;6.256;2023-03-23T12:40:57;100436.25;;;18.81;nan
12468;BME280;57850;52.922;6.256;2023-03-23T12:43:31;100382.03;;;19.42;nan
12468;BME280;57850;52.922;6.256;2023-03-23T12:46:14;100445.81;;;18.36;nan
12468;BME280;57850;52.922;6.256;2023-03-23T12:48:47;100427.59;;;18.44;nan
12468;BME280;57850;52.922;6.256;2023-03-23T12:51:22;100415.69;;;18.85;nan
12468;BME280;57850;52.922;6.256;2023-03-23T12:53:56;100479.91;;;17.55;nan
12468;BME280;57850;52.922;6.256;2023-03-23T12:56:29;100447.41;;;18.15;nan
12468;BME280;57850;52.922;6.256;2023-03-23T12:59:04;100461.75;;;18.00;nan
12468;BME280;57850;52.922;6.256;2023-03-23T13:01:37;100436.78;;;18.39;nan
12468;BME280;57850;52.922;6.256;2023-03-23T13:04:08;100472.84;;;17.92;nan
12468;BME280;57850;52.922;6.256;2023-03-23T13:06:39;100426.09;;;18.29;nan
12468;BME280;57850;52.922;6.256;2023-03-23T13:09:12;100448.97;;;18.17;nan
12468;BME280;57850;52.922;6.256;2023-03-23T13:11:41;100402.03;;;18.10;nan
12468;BME280;57850;52.922;6.256;2023-03-23T13:14:20;100435.94;;;18.03;nan
12468;BME280;57850;52.922;6.256;2023-03-23T13:16:52;100368.56;;;19.45;nan
12468;BME280;57850;52.922;6.256;2023-03-23T13:19:25;100375.69;;;19.22;nan
12468;BME280;57850;52.922;6.256;2023-03-23T13:22:00;100353.56;;;19.77;nan
12468;BME280;57850;52.922;6.256;2023-03-23T13:24:30;100377.59;;;19.43;nan
12468;BME280;57850;52.922;6.256;2023-03-23T13:26:58;100408.13;;;18.91;nan
12468;BME280;57850;52.922;6.256;2023-03-23T13:29:27;100448.97;;;17.94;nan
12468;BME280;57850;52.922;6.256;2023-03-23T13:32:05;100409.03;;;18.57;nan
12468;BME280;57850;52.922;6.256;2023-03-23T13:34:32;100433.13;;;18.17;nan
12468;BME280;57850;52.922;6.256;2023-03-23T13:37:02;100435.84;;;18.40;nan